Nearby METAR Reports

 

KSJC - San Jose, California, USA
Distance from station: NE 9mi, 14km
Updated: Wed, 16-Jan-2019 2:26am CST
Overcast
Overcast
 Wind from SE
Wind: SE 9 mph , 15 km/h
Temperature: 55°F , 13°C
Dew Point: 52°F , 11°C
Humidity: 88%
Barometer: 29.92 inHg , 1013.2 hPa
Clouds: Overcast
Visibility: 8 miles , 13 km
Cloud details: Few Clouds 2100 ft
Mostly cloudy 2600 ft
Overcast 3900 ft
2019/01/16 08:26 KSJC 160826Z AUTO 14008KT 8SM FEW021 BKN026 OVC039 13/11 A2992 RMK AO2 RAE17 P0000 T01280106
KNUQ - Moffett Nas/Mtn, California, USA
Distance from station: N 9mi, 14km
Updated: Wed, 16-Jan-2019 1:56am CST
Overcast
Overcast
 Wind from SE
Wind: SE 9 mph , 15 km/h
Temperature: 55°F , 13°C
Dew Point: 52°F , 11°C
Humidity: 88%
Barometer: 29.92 inHg , 1013.2 hPa
Clouds: Overcast
Visibility: 10 miles , 16 km
Cloud details: Few Clouds 3500 ft
Mostly cloudy 4200 ft
Overcast 5000 ft
2019/01/16 07:56 KNUQ 160756Z AUTO 14008KT 10SM FEW035 BKN042 OVC050 13/11 A2992 RMK AO2 RAE0659 SLP133 P0000 T01280106 401440106
 
KPAO - Palo Alto, California, USA
Distance from station: NNW 14mi, 23km
Updated: Tue, 15-Jan-2019 10:47pm CST
NOT Current
Mostly cloudy
Mostly cloudy
 Wind from SSW
Wind: SSW 14 mph , 22 km/h
Temperature: 57°F , 14°C
Dew Point: 50°F , 10°C
Humidity: 77%
Barometer: 29.85 inHg , 1010.8 hPa
Clouds: Mostly cloudy
Visibility: 10 miles , 16 km
Cloud details: Partly cloudy 2400 ft
Mostly cloudy 3800 ft
2019/01/16 04:47 KPAO 160447Z 20012KT 10SM SCT024 BKN038 14/10 A2985 RMK LAST
KRHV - San Jose/Reid, California, USA
Distance from station: ENE 12mi, 19km
Updated: Tue, 15-Jan-2019 11:58pm CST
NOT Current
Mostly cloudy
Mostly cloudy
 Wind from S
Wind: S 10 mph , 17 km/h
Temperature: 55°F , 13°C
Dew Point: 52°F , 11°C
Humidity: 88%
Barometer: 29.87 inHg , 1011.5 hPa
Clouds: Mostly cloudy
Visibility: 10 miles , 16 km
Cloud details: Mostly cloudy 5000 ft
2019/01/16 05:58 KRHV 160558Z 18009KT 10SM BKN050 13/11 A2987 RMK LAST
 
KOAK - Oakland, California, USA
Distance from station: NNW 31mi, 50km
Updated: Wed, 16-Jan-2019 1:53am CST
Light rain, Overcast
Light rain, Overcast
 Wind from SSE
Wind: SSE 14 mph , 22 km/h
Temperature: 57°F , 14°C
Dew Point: 52°F , 11°C
Humidity: 82%
Barometer: 29.91 inHg , 1012.9 hPa
Summary: Light rain
Clouds: Overcast
Visibility: 10 miles , 16 km
Cloud details: Mostly cloudy 2500 ft
Mostly cloudy 4100 ft
Overcast 5500 ft
2019/01/16 07:53 KOAK 160753Z 16012KT 10SM -RA BKN025 BKN041 OVC055 14/11 A2991 RMK AO2 RAB42 SLP126 P0000 T01390106 401390111
KSQL - San Carlos Airpo, California, USA
Distance from station: NW 21mi, 34km
Updated: Wed, 16-Jan-2019 2:40am CST
Overcast
Overcast
 Wind from SSE
Wind: SSE 9 mph , 15 km/h
Temperature: 55°F , 13°C
Dew Point: 54°F , 12°C
Humidity: 94%
Barometer: 29.90 inHg , 1012.5 hPa
Clouds: Overcast
Visibility: 7 miles , 11 km
Cloud details: Partly cloudy 2100 ft
Overcast 2600 ft
2019/01/16 08:40 KSQL 160840Z AUTO 16008KT 7SM SCT021 OVC026 13/12 A2990 RMK AO2
 
KSFO - San Francisco, California, USA
Distance from station: NW 30mi, 49km
Updated: Wed, 16-Jan-2019 1:56am CST
Light rain, Overcast
Light rain, Overcast
 Wind from SE
Wind: SE 8 mph , 13 km/h
Temperature: 55°F , 13°C
Dew Point: 50°F , 10°C
Humidity: 82%
Barometer: 29.89 inHg , 1012.2 hPa
Summary: Light rain
Clouds: Overcast
Visibility: 3 miles , 5 km
Cloud details: Few Clouds 1100 ft
Mostly cloudy 1800 ft
Overcast 2700 ft
2019/01/16 07:56 KSFO 160756Z 14007KT 3SM -RA FEW011 BKN018 OVC027 13/10 A2989 RMK AO2 RAB23 SLP121 P0003 T01280100 401330089
KE16 - San Martin, California, USA
Distance from station: ESE 27mi, 43km
Updated: Wed, 16-Jan-2019 2:30am CST
Overcast
Overcast
 Wind from S
Wind: S 10 mph , 17 km/h
Temperature: 55°F , 13°C
Dew Point: 50°F , 10°C
Humidity: 82%
Barometer: 29.96 inHg , 1014.6 hPa
Clouds: Overcast
Visibility: 9 miles , 14 km
Cloud details: Mostly cloudy 3000 ft
Overcast 3600 ft
2019/01/16 08:30 KE16 160830Z AUTO 18009KT 9SM BKN030 OVC036 13/10 A2996 RMK AO2
 
KWVI - Watsonville, California, USA
Distance from station: SSE 27mi, 44km
Updated: Wed, 16-Jan-2019 2:30am CST
Overcast
Overcast
 Wind from S
Wind: S 6 mph , 9 km/h
Temperature: 54°F , 12°C
Dew Point: 52°F , 11°C
Humidity: 94%
Barometer: 29.95 inHg , 1014.2 hPa
Clouds: Overcast
Visibility: 10 miles , 16 km
Cloud details: Few Clouds 2100 ft
Mostly cloudy 2800 ft
Overcast 3400 ft
2019/01/16 08:30 KWVI 160830Z AUTO 17005KT 10SM FEW021 BKN028 OVC034 12/11 A2995 RMK AO2 RAB20E29 P0000 T01220111
KHAF - Half Moon Bay, California, USA
Distance from station: WNW 31mi, 50km
Updated: Wed, 16-Jan-2019 2:35am CST
Mist, Overcast
Mist, Overcast
 Wind from S
Wind: S 17 mph , 28 km/h, Gust: 24 mph , 39 km/h
Temperature: 55°F , 13°C
Dew Point: 55°F , 13°C
Humidity: 100%
Barometer: 29.91 inHg , 1012.9 hPa
Summary: Mist
Clouds: Overcast
Visibility: 5 miles , 8 km
Cloud details: Partly cloudy 600 ft
Overcast 1400 ft
2019/01/16 08:35 KHAF 160835Z AUTO 19015G21KT 5SM BR SCT006 OVC014 13/13 A2991 RMK AO2
 
KHWD - Hayward, California, USA
Distance from station: N 28mi, 44km
Updated: Wed, 16-Jan-2019 2:41am CST
Overcast
Overcast
 Wind from SSE
Wind: SSE 10 mph , 17 km/h
Temperature: 55°F , 13°C
Dew Point: 50°F , 10°C
Humidity: 82%
Barometer: 29.90 inHg , 1012.5 hPa
Clouds: Overcast
Visibility: 10 miles , 16 km
Cloud details: Partly cloudy 2500 ft
Mostly cloudy 3100 ft
Overcast 4700 ft
2019/01/16 08:41 KHWD 160841Z AUTO 16009KT 10SM SCT025 BKN031 OVC047 13/10 A2990 RMK AO2 RAB02E33 P0000 T01330100
KLVK - Livermore, California, USA
Distance from station: NNE 31mi, 51km
Updated: Wed, 16-Jan-2019 2:02am CST
Mostly cloudy
Mostly cloudy
 Wind from SSW
Wind: SSW 5 mph , 7 km/h
Temperature: 54°F , 12°C
Dew Point: 48°F , 9°C
Humidity: 82%
Barometer: 29.90 inHg , 1012.5 hPa
Clouds: Mostly cloudy
Visibility: 10 miles , 16 km
Cloud details: Partly cloudy 2500 ft
Mostly cloudy 3000 ft
Mostly cloudy 3900 ft
2019/01/16 08:02 KLVK 160802Z AUTO 20004KT 10SM SCT025 BKN030 BKN039 12/09 A2990 RMK AO2 T01170094